sensor_id;sensor_type;location;lat;lon;timestamp;P1;durP1;ratioP1;P2;durP2;ratioP2
7150;SDS011;3617;48.836;9.172;2023-03-31T00:01:24;2.77;;;1.30;;
7150;SDS011;3617;48.836;9.172;2023-03-31T00:03:50;5.90;;;1.77;;
7150;SDS011;3617;48.836;9.172;2023-03-31T00:06:26;4.27;;;1.50;;
7150;SDS011;3617;48.836;9.172;2023-03-31T00:08:52;4.90;;;1.83;;
7150;SDS011;3617;48.836;9.172;2023-03-31T00:11:18;3.33;;;1.77;;
7150;SDS011;3617;48.836;9.172;2023-03-31T00:13:45;2.73;;;1.33;;
7150;SDS011;3617;48.836;9.172;2023-03-31T00:16:11;2.27;;;1.47;;
7150;SDS011;3617;48.836;9.172;2023-03-31T00:18:37;4.00;;;1.80;;
7150;SDS011;3617;48.836;9.172;2023-03-31T00:21:15;2.80;;;1.70;;
7150;SDS011;3617;48.836;9.172;2023-03-31T00:24:01;5.00;;;1.57;;
7150;SDS011;3617;48.836;9.172;2023-03-31T00:26:28;2.97;;;1.50;;
7150;SDS011;3617;48.836;9.172;2023-03-31T00:28:54;5.13;;;1.73;;
7150;SDS011;3617;48.836;9.172;2023-03-31T00:31:21;4.10;;;1.50;;
7150;SDS011;3617;48.836;9.172;2023-03-31T00:33:47;2.10;;;1.40;;
7150;SDS011;3617;48.836;9.172;2023-03-31T00:36:13;5.73;;;1.80;;
7150;SDS011;3617;48.836;9.172;2023-03-31T00:38:44;3.60;;;1.50;;
7150;SDS011;3617;48.836;9.172;2023-03-31T00:41:11;3.43;;;1.50;;
7150;SDS011;3617;48.836;9.172;2023-03-31T00:43:38;5.93;;;1.90;;
7150;SDS011;3617;48.836;9.172;2023-03-31T00:46:26;4.73;;;1.67;;
7150;SDS011;3617;48.836;9.172;2023-03-31T00:48:52;3.93;;;1.50;;
7150;SDS011;3617;48.836;9.172;2023-03-31T00:51:23;2.03;;;1.50;;
7150;SDS011;3617;48.836;9.172;2023-03-31T00:53:55;3.20;;;1.60;;
7150;SDS011;3617;48.836;9.172;2023-03-31T00:56:27;6.00;;;1.97;;
7150;SDS011;3617;48.836;9.172;2023-03-31T00:58:56;4.83;;;1.77;;
7150;SDS011;3617;48.836;9.172;2023-03-31T01:01:25;4.20;;;1.50;;
7150;SDS011;3617;48.836;9.172;2023-03-31T01:03:51;3.47;;;1.67;;
7150;SDS011;3617;48.836;9.172;2023-03-31T01:06:17;5.07;;;1.60;;
7150;SDS011;3617;48.836;9.172;2023-03-31T01:08:44;5.67;;;1.80;;
7150;SDS011;3617;48.836;9.172;2023-03-31T01:11:12;3.20;;;1.70;;
7150;SDS011;3617;48.836;9.172;2023-03-31T01:13:40;4.47;;;1.50;;
7150;SDS011;3617;48.836;9.172;2023-03-31T01:16:07;5.97;;;1.53;;
7150;SDS011;3617;48.836;9.172;2023-03-31T01:18:32;3.87;;;1.47;;
7150;SDS011;3617;48.836;9.172;2023-03-31T01:21:05;3.67;;;1.60;;
7150;SDS011;3617;48.836;9.172;2023-03-31T01:24:15;5.27;;;2.07;;
7150;SDS011;3617;48.836;9.172;2023-03-31T01:29:24;4.10;;;1.37;;
7150;SDS011;3617;48.836;9.172;2023-03-31T01:34:48;5.37;;;1.60;;
7150;SDS011;3617;48.836;9.172;2023-03-31T01:47:44;3.00;;;1.50;;
7150;SDS011;3617;48.836;9.172;2023-03-31T01:50:21;5.87;;;1.80;;
7150;SDS011;3617;48.836;9.172;2023-03-31T01:52:52;3.03;;;1.60;;
7150;SDS011;3617;48.836;9.172;2023-03-31T01:55:22;5.13;;;1.90;;
7150;SDS011;3617;48.836;9.172;2023-03-31T01:57:50;4.97;;;1.27;;
7150;SDS011;3617;48.836;9.172;2023-03-31T02:00:18;1.90;;;1.00;;
7150;SDS011;3617;48.836;9.172;2023-03-31T02:02:49;3.33;;;1.40;;
7150;SDS011;3617;48.836;9.172;2023-03-31T02:05:18;3.83;;;1.13;;
7150;SDS011;3617;48.836;9.172;2023-03-31T02:07:46;6.07;;;1.13;;
7150;SDS011;3617;48.836;9.172;2023-03-31T02:10:14;3.73;;;1.23;;
7150;SDS011;3617;48.836;9.172;2023-03-31T02:12:41;2.17;;;1.10;;
7150;SDS011;3617;48.836;9.172;2023-03-31T02:15:09;4.63;;;1.30;;
7150;SDS011;3617;48.836;9.172;2023-03-31T02:17:36;2.73;;;1.10;;
7150;SDS011;3617;48.836;9.172;2023-03-31T02:20:05;2.90;;;1.40;;
7150;SDS011;3617;48.836;9.172;2023-03-31T02:22:34;4.70;;;1.23;;
7150;SDS011;3617;48.836;9.172;2023-03-31T02:25:01;4.73;;;1.60;;
7150;SDS011;3617;48.836;9.172;2023-03-31T02:27:29;2.47;;;1.17;;
7150;SDS011;3617;48.836;9.172;2023-03-31T02:29:56;3.33;;;1.30;;
7150;SDS011;3617;48.836;9.172;2023-03-31T02:34:55;6.20;;;1.80;;
7150;SDS011;3617;48.836;9.172;2023-03-31T02:37:21;4.37;;;1.50;;
7150;SDS011;3617;48.836;9.172;2023-03-31T02:39:47;2.63;;;1.27;;
7150;SDS011;3617;48.836;9.172;2023-03-31T02:42:14;5.30;;;1.70;;
7150;SDS011;3617;48.836;9.172;2023-03-31T02:44:41;2.17;;;1.20;;
7150;SDS011;3617;48.836;9.172;2023-03-31T02:47:08;2.57;;;1.67;;
7150;SDS011;3617;48.836;9.172;2023-03-31T02:49:35;3.43;;;1.70;;
7150;SDS011;3617;48.836;9.172;2023-03-31T02:55:05;7.43;;;1.77;;
7150;SDS011;3617;48.836;9.172;2023-03-31T03:00:23;1.97;;;1.30;;
7150;SDS011;3617;48.836;9.172;2023-03-31T03:05:31;2.40;;;1.50;;
7150;SDS011;3617;48.836;9.172;2023-03-31T03:08:51;5.57;;;2.13;;
7150;SDS011;3617;48.836;9.172;2023-03-31T03:10:55;4.13;;;2.00;;
7150;SDS011;3617;48.836;9.172;2023-03-31T03:15:57;6.93;;;2.00;;
7150;SDS011;3617;48.836;9.172;2023-03-31T03:18:25;6.07;;;2.30;;
7150;SDS011;3617;48.836;9.172;2023-03-31T03:20:51;5.63;;;1.73;;
7150;SDS011;3617;48.836;9.172;2023-03-31T03:23:17;4.73;;;1.97;;
7150;SDS011;3617;48.836;9.172;2023-03-31T03:25:43;3.37;;;1.93;;
7150;SDS011;3617;48.836;9.172;2023-03-31T03:28:10;6.07;;;2.00;;
7150;SDS011;3617;48.836;9.172;2023-03-31T03:30:36;2.17;;;1.60;;
7150;SDS011;3617;48.836;9.172;2023-03-31T03:33:02;3.97;;;1.70;;
7150;SDS011;3617;48.836;9.172;2023-03-31T03:35:31;2.20;;;1.80;;
7150;SDS011;3617;48.836;9.172;2023-03-31T03:37:57;5.70;;;1.93;;
7150;SDS011;3617;48.836;9.172;2023-03-31T03:40:23;5.10;;;2.07;;
7150;SDS011;3617;48.836;9.172;2023-03-31T03:42:49;4.03;;;2.27;;
7150;SDS011;3617;48.836;9.172;2023-03-31T03:45:15;3.80;;;1.77;;
7150;SDS011;3617;48.836;9.172;2023-03-31T03:47:41;4.37;;;2.67;;
7150;SDS011;3617;48.836;9.172;2023-03-31T03:50:07;3.47;;;1.80;;
7150;SDS011;3617;48.836;9.172;2023-03-31T03:52:34;2.93;;;1.80;;
7150;SDS011;3617;48.836;9.172;2023-03-31T03:55:00;3.00;;;1.80;;
7150;SDS011;3617;48.836;9.172;2023-03-31T03:57:26;3.97;;;2.07;;
7150;SDS011;3617;48.836;9.172;2023-03-31T03:59:52;5.47;;;2.13;;
7150;SDS011;3617;48.836;9.172;2023-03-31T04:02:18;3.77;;;2.00;;
7150;SDS011;3617;48.836;9.172;2023-03-31T04:04:44;2.63;;;1.97;;
7150;SDS011;3617;48.836;9.172;2023-03-31T04:07:11;4.50;;;2.00;;
7150;SDS011;3617;48.836;9.172;2023-03-31T04:09:37;5.37;;;2.37;;
7150;SDS011;3617;48.836;9.172;2023-03-31T04:12:03;5.10;;;2.33;;
7150;SDS011;3617;48.836;9.172;2023-03-31T04:14:29;4.20;;;2.13;;
7150;SDS011;3617;48.836;9.172;2023-03-31T04:16:55;4.57;;;2.00;;
7150;SDS011;3617;48.836;9.172;2023-03-31T04:19:22;3.07;;;1.80;;
7150;SDS011;3617;48.836;9.172;2023-03-31T04:21:50;3.90;;;2.20;;
7150;SDS011;3617;48.836;9.172;2023-03-31T04:24:22;3.87;;;1.93;;
7150;SDS011;3617;48.836;9.172;2023-03-31T04:26:55;2.93;;;2.23;;
7150;SDS011;3617;48.836;9.172;2023-03-31T04:29:21;3.77;;;2.10;;
7150;SDS011;3617;48.836;9.172;2023-03-31T04:31:50;4.33;;;2.50;;
7150;SDS011;3617;48.836;9.172;2023-03-31T04:34:17;5.47;;;2.80;;
7150;SDS011;3617;48.836;9.172;2023-03-31T04:36:46;3.70;;;2.43;;
7150;SDS011;3617;48.836;9.172;2023-03-31T04:39:12;5.70;;;2.90;;
7150;SDS011;3617;48.836;9.172;2023-03-31T04:41:38;3.67;;;2.03;;
7150;SDS011;3617;48.836;9.172;2023-03-31T04:44:04;5.40;;;2.50;;
7150;SDS011;3617;48.836;9.172;2023-03-31T04:46:31;7.27;;;2.50;;
7150;SDS011;3617;48.836;9.172;2023-03-31T04:48:57;6.17;;;2.67;;
7150;SDS011;3617;48.836;9.172;2023-03-31T04:51:24;6.33;;;2.50;;
7150;SDS011;3617;48.836;9.172;2023-03-31T04:53:50;5.80;;;2.63;;
7150;SDS011;3617;48.836;9.172;2023-03-31T04:56:16;5.87;;;2.50;;
7150;SDS011;3617;48.836;9.172;2023-03-31T04:58:42;4.83;;;2.60;;
7150;SDS011;3617;48.836;9.172;2023-03-31T05:01:09;5.20;;;2.73;;
7150;SDS011;3617;48.836;9.172;2023-03-31T05:03:37;5.50;;;2.70;;
7150;SDS011;3617;48.836;9.172;2023-03-31T05:06:03;7.57;;;2.70;;
7150;SDS011;3617;48.836;9.172;2023-03-31T05:08:30;4.10;;;2.73;;
7150;SDS011;3617;48.836;9.172;2023-03-31T05:10:56;6.33;;;2.90;;
7150;SDS011;3617;48.836;9.172;2023-03-31T05:13:22;8.87;;;2.93;;
7150;SDS011;3617;48.836;9.172;2023-03-31T05:15:48;4.03;;;2.67;;
7150;SDS011;3617;48.836;9.172;2023-03-31T05:18:15;4.53;;;2.40;;
7150;SDS011;3617;48.836;9.172;2023-03-31T05:20:41;5.33;;;2.87;;
7150;SDS011;3617;48.836;9.172;2023-03-31T05:23:07;4.37;;;2.90;;
7150;SDS011;3617;48.836;9.172;2023-03-31T05:25:33;7.33;;;3.00;;
7150;SDS011;3617;48.836;9.172;2023-03-31T05:27:59;7.00;;;2.57;;
7150;SDS011;3617;48.836;9.172;2023-03-31T05:30:26;7.90;;;3.40;;
7150;SDS011;3617;48.836;9.172;2023-03-31T05:32:52;10.47;;;4.17;;
7150;SDS011;3617;48.836;9.172;2023-03-31T05:35:18;6.77;;;3.23;;
7150;SDS011;3617;48.836;9.172;2023-03-31T05:37:45;3.53;;;2.80;;
7150;SDS011;3617;48.836;9.172;2023-03-31T05:40:11;6.93;;;3.10;;
7150;SDS011;3617;48.836;9.172;2023-03-31T05:42:37;10.83;;;3.50;;
7150;SDS011;3617;48.836;9.172;2023-03-31T05:45:03;7.83;;;3.23;;
7150;SDS011;3617;48.836;9.172;2023-03-31T05:47:29;12.73;;;3.53;;
7150;SDS011;3617;48.836;9.172;2023-03-31T05:49:56;6.27;;;3.37;;
7150;SDS011;3617;48.836;9.172;2023-03-31T05:52:22;7.40;;;4.07;;
7150;SDS011;3617;48.836;9.172;2023-03-31T05:54:48;7.80;;;3.73;;
7150;SDS011;3617;48.836;9.172;2023-03-31T05:57:14;11.30;;;4.63;;
7150;SDS011;3617;48.836;9.172;2023-03-31T05:59:41;9.57;;;4.90;;
7150;SDS011;3617;48.836;9.172;2023-03-31T06:02:07;14.50;;;6.07;;
7150;SDS011;3617;48.836;9.172;2023-03-31T06:04:33;14.90;;;7.03;;
7150;SDS011;3617;48.836;9.172;2023-03-31T06:07:01;11.07;;;5.00;;
7150;SDS011;3617;48.836;9.172;2023-03-31T06:09:26;8.80;;;4.17;;
7150;SDS011;3617;48.836;9.172;2023-03-31T06:11:53;9.37;;;5.30;;
7150;SDS011;3617;48.836;9.172;2023-03-31T06:14:19;10.13;;;5.67;;
7150;SDS011;3617;48.836;9.172;2023-03-31T06:16:45;12.13;;;6.87;;
7150;SDS011;3617;48.836;9.172;2023-03-31T06:19:12;12.23;;;5.70;;
7150;SDS011;3617;48.836;9.172;2023-03-31T06:21:38;15.40;;;6.50;;
7150;SDS011;3617;48.836;9.172;2023-03-31T06:24:04;8.10;;;5.13;;
7150;SDS011;3617;48.836;9.172;2023-03-31T06:26:30;6.93;;;4.30;;
7150;SDS011;3617;48.836;9.172;2023-03-31T06:28:56;11.40;;;4.70;;
7150;SDS011;3617;48.836;9.172;2023-03-31T06:31:23;10.00;;;4.00;;
7150;SDS011;3617;48.836;9.172;2023-03-31T06:33:49;10.37;;;4.97;;
7150;SDS011;3617;48.836;9.172;2023-03-31T06:36:16;7.23;;;4.40;;
7150;SDS011;3617;48.836;9.172;2023-03-31T06:38:42;7.83;;;4.63;;
7150;SDS011;3617;48.836;9.172;2023-03-31T06:41:10;11.00;;;4.87;;
7150;SDS011;3617;48.836;9.172;2023-03-31T06:43:36;8.70;;;4.70;;
7150;SDS011;3617;48.836;9.172;2023-03-31T06:46:03;9.90;;;5.27;;
7150;SDS011;3617;48.836;9.172;2023-03-31T06:48:29;10.63;;;5.13;;
7150;SDS011;3617;48.836;9.172;2023-03-31T06:50:57;9.80;;;5.13;;
7150;SDS011;3617;48.836;9.172;2023-03-31T06:53:24;12.57;;;5.20;;
7150;SDS011;3617;48.836;9.172;2023-03-31T06:55:50;12.40;;;4.83;;
7150;SDS011;3617;48.836;9.172;2023-03-31T06:58:16;7.97;;;5.00;;
7150;SDS011;3617;48.836;9.172;2023-03-31T07:00:42;8.73;;;5.10;;
7150;SDS011;3617;48.836;9.172;2023-03-31T07:03:10;9.43;;;5.10;;
7150;SDS011;3617;48.836;9.172;2023-03-31T07:05:36;9.20;;;5.07;;
7150;SDS011;3617;48.836;9.172;2023-03-31T07:08:02;13.33;;;5.03;;
7150;SDS011;3617;48.836;9.172;2023-03-31T07:10:29;12.27;;;5.27;;
7150;SDS011;3617;48.836;9.172;2023-03-31T07:12:55;10.80;;;5.27;;
7150;SDS011;3617;48.836;9.172;2023-03-31T07:15:22;8.87;;;5.30;;
7150;SDS011;3617;48.836;9.172;2023-03-31T07:17:48;10.77;;;4.70;;
7150;SDS011;3617;48.836;9.172;2023-03-31T07:20:18;11.33;;;5.80;;
7150;SDS011;3617;48.836;9.172;2023-03-31T07:22:44;12.17;;;5.07;;
7150;SDS011;3617;48.836;9.172;2023-03-31T07:25:12;9.70;;;5.40;;
7150;SDS011;3617;48.836;9.172;2023-03-31T07:27:38;6.43;;;3.90;;
7150;SDS011;3617;48.836;9.172;2023-03-31T07:30:08;13.03;;;4.07;;
7150;SDS011;3617;48.836;9.172;2023-03-31T07:32:34;6.27;;;3.93;;
7150;SDS011;3617;48.836;9.172;2023-03-31T07:35:04;6.80;;;3.40;;
7150;SDS011;3617;48.836;9.172;2023-03-31T07:37:34;4.60;;;2.60;;
7150;SDS011;3617;48.836;9.172;2023-03-31T07:40:00;4.90;;;2.90;;
7150;SDS011;3617;48.836;9.172;2023-03-31T07:42:26;4.53;;;2.70;;
7150;SDS011;3617;48.836;9.172;2023-03-31T07:44:52;3.77;;;2.00;;
7150;SDS011;3617;48.836;9.172;2023-03-31T07:47:18;3.47;;;1.90;;
7150;SDS011;3617;48.836;9.172;2023-03-31T07:49:44;4.17;;;2.03;;
7150;SDS011;3617;48.836;9.172;2023-03-31T07:52:12;3.60;;;2.00;;
7150;SDS011;3617;48.836;9.172;2023-03-31T07:54:38;2.40;;;1.70;;
7150;SDS011;3617;48.836;9.172;2023-03-31T07:57:04;2.83;;;1.40;;
7150;SDS011;3617;48.836;9.172;2023-03-31T07:59:32;2.77;;;1.70;;
7150;SDS011;3617;48.836;9.172;2023-03-31T08:01:58;2.53;;;1.40;;
7150;SDS011;3617;48.836;9.172;2023-03-31T08:04:24;2.70;;;1.47;;
7150;SDS011;3617;48.836;9.172;2023-03-31T08:06:50;1.93;;;1.40;;
7150;SDS011;3617;48.836;9.172;2023-03-31T08:09:17;1.53;;;1.07;;
7150;SDS011;3617;48.836;9.172;2023-03-31T08:11:43;2.13;;;0.90;;
7150;SDS011;3617;48.836;9.172;2023-03-31T08:14:09;1.83;;;1.00;;
7150;SDS011;3617;48.836;9.172;2023-03-31T08:16:35;3.97;;;1.20;;
7150;SDS011;3617;48.836;9.172;2023-03-31T08:19:01;1.53;;;0.90;;
7150;SDS011;3617;48.836;9.172;2023-03-31T08:21:28;1.48;;;1.38;;
7150;SDS011;3617;48.836;9.172;2023-03-31T08:23:54;1.75;;;1.10;;
7150;SDS011;3617;48.836;9.172;2023-03-31T08:26:20;3.05;;;1.10;;
7150;SDS011;3617;48.836;9.172;2023-03-31T08:28:48;1.85;;;1.00;;
7150;SDS011;3617;48.836;9.172;2023-03-31T08:31:14;1.17;;;0.77;;
7150;SDS011;3617;48.836;9.172;2023-03-31T08:33:41;1.55;;;0.65;;
7150;SDS011;3617;48.836;9.172;2023-03-31T08:36:07;4.05;;;1.00;;
7150;SDS011;3617;48.836;9.172;2023-03-31T08:38:37;1.20;;;0.98;;
7150;SDS011;3617;48.836;9.172;2023-03-31T08:41:06;1.35;;;0.73;;
7150;SDS011;3617;48.836;9.172;2023-03-31T08:43:37;1.77;;;0.85;;
7150;SDS011;3617;48.836;9.172;2023-03-31T08:46:05;2.95;;;1.20;;
7150;SDS011;3617;48.836;9.172;2023-03-31T08:48:36;2.10;;;0.80;;
7150;SDS011;3617;48.836;9.172;2023-03-31T08:51:13;2.25;;;0.90;;
7150;SDS011;3617;48.836;9.172;2023-03-31T08:53:41;2.72;;;0.90;;
7150;SDS011;3617;48.836;9.172;2023-03-31T08:56:12;1.45;;;0.90;;
7150;SDS011;3617;48.836;9.172;2023-03-31T08:58:47;1.33;;;0.82;;
7150;SDS011;3617;48.836;9.172;2023-03-31T09:06:17;2.20;;;1.00;;
7150;SDS011;3617;48.836;9.172;2023-03-31T09:08:46;1.98;;;1.30;;
7150;SDS011;3617;48.836;9.172;2023-03-31T09:11:24;2.13;;;1.00;;
7150;SDS011;3617;48.836;9.172;2023-03-31T09:14:00;2.63;;;0.80;;
7150;SDS011;3617;48.836;9.172;2023-03-31T09:16:34;2.38;;;0.88;;
7150;SDS011;3617;48.836;9.172;2023-03-31T09:19:02;1.90;;;0.90;;
7150;SDS011;3617;48.836;9.172;2023-03-31T09:21:32;4.65;;;1.30;;
7150;SDS011;3617;48.836;9.172;2023-03-31T09:24:04;1.25;;;0.70;;
7150;SDS011;3617;48.836;9.172;2023-03-31T09:26:41;1.98;;;0.75;;
7150;SDS011;3617;48.836;9.172;2023-03-31T09:29:11;1.35;;;0.70;;
7150;SDS011;3617;48.836;9.172;2023-03-31T09:31:40;1.98;;;0.82;;
7150;SDS011;3617;48.836;9.172;2023-03-31T09:34:11;2.28;;;0.90;;
7150;SDS011;3617;48.836;9.172;2023-03-31T09:36:37;1.45;;;0.95;;
7150;SDS011;3617;48.836;9.172;2023-03-31T09:39:03;2.40;;;1.02;;
7150;SDS011;3617;48.836;9.172;2023-03-31T09:41:30;2.35;;;0.93;;
7150;SDS011;3617;48.836;9.172;2023-03-31T09:43:56;1.27;;;0.80;;
7150;SDS011;3617;48.836;9.172;2023-03-31T09:46:27;3.13;;;1.05;;
7150;SDS011;3617;48.836;9.172;2023-03-31T09:48:57;1.80;;;0.88;;
7150;SDS011;3617;48.836;9.172;2023-03-31T09:51:26;3.60;;;1.10;;
7150;SDS011;3617;48.836;9.172;2023-03-31T09:53:59;1.35;;;0.90;;
7150;SDS011;3617;48.836;9.172;2023-03-31T09:56:48;4.97;;;1.02;;
7150;SDS011;3617;48.836;9.172;2023-03-31T09:59:22;1.77;;;1.00;;
7150;SDS011;3617;48.836;9.172;2023-03-31T10:01:55;2.97;;;1.20;;
7150;SDS011;3617;48.836;9.172;2023-03-31T10:04:23;4.03;;;1.10;;
7150;SDS011;3617;48.836;9.172;2023-03-31T10:06:50;2.72;;;1.13;;
7150;SDS011;3617;48.836;9.172;2023-03-31T10:09:17;2.63;;;0.90;;
7150;SDS011;3617;48.836;9.172;2023-03-31T10:11:55;1.95;;;0.70;;
7150;SDS011;3617;48.836;9.172;2023-03-31T10:14:26;4.07;;;1.10;;
7150;SDS011;3617;48.836;9.172;2023-03-31T10:16:57;3.97;;;1.13;;
7150;SDS011;3617;48.836;9.172;2023-03-31T10:21:59;1.70;;;1.10;;
7150;SDS011;3617;48.836;9.172;2023-03-31T10:24:34;4.75;;;1.00;;
7150;SDS011;3617;48.836;9.172;2023-03-31T10:27:01;2.38;;;1.15;;
7150;SDS011;3617;48.836;9.172;2023-03-31T10:29:31;0.70;;;0.68;;
7150;SDS011;3617;48.836;9.172;2023-03-31T10:32:07;3.60;;;0.85;;
7150;SDS011;3617;48.836;9.172;2023-03-31T10:34:35;2.17;;;1.02;;
7150;SDS011;3617;48.836;9.172;2023-03-31T10:37:04;2.13;;;1.02;;
7150;SDS011;3617;48.836;9.172;2023-03-31T10:39:31;3.22;;;1.10;;
7150;SDS011;3617;48.836;9.172;2023-03-31T10:41:57;1.73;;;0.73;;
7150;SDS011;3617;48.836;9.172;2023-03-31T10:44:31;3.33;;;1.02;;
7150;SDS011;3617;48.836;9.172;2023-03-31T10:49:35;4.68;;;1.20;;
7150;SDS011;3617;48.836;9.172;2023-03-31T10:52:01;5.20;;;1.23;;
7150;SDS011;3617;48.836;9.172;2023-03-31T10:54:27;2.70;;;0.98;;
7150;SDS011;3617;48.836;9.172;2023-03-31T10:56:55;4.10;;;1.17;;
7150;SDS011;3617;48.836;9.172;2023-03-31T11:12:32;5.63;;;1.45;;
7150;SDS011;3617;48.836;9.172;2023-03-31T11:17:52;4.00;;;1.27;;
7150;SDS011;3617;48.836;9.172;2023-03-31T11:22:58;7.23;;;1.40;;
7150;SDS011;3617;48.836;9.172;2023-03-31T11:30:32;1.40;;;0.83;;
7150;SDS011;3617;48.836;9.172;2023-03-31T11:33:04;1.40;;;0.70;;
7150;SDS011;3617;48.836;9.172;2023-03-31T11:35:49;1.07;;;0.60;;
7150;SDS011;3617;48.836;9.172;2023-03-31T11:38:33;1.90;;;0.60;;
7150;SDS011;3617;48.836;9.172;2023-03-31T11:41:10;2.10;;;0.87;;
7150;SDS011;3617;48.836;9.172;2023-03-31T11:48:46;0.97;;;0.70;;
7150;SDS011;3617;48.836;9.172;2023-03-31T11:51:14;1.23;;;0.70;;
7150;SDS011;3617;48.836;9.172;2023-03-31T11:53:41;2.43;;;0.70;;
7150;SDS011;3617;48.836;9.172;2023-03-31T11:56:08;1.00;;;0.50;;
7150;SDS011;3617;48.836;9.172;2023-03-31T11:58:40;2.50;;;0.80;;
7150;SDS011;3617;48.836;9.172;2023-03-31T12:04:00;1.73;;;0.70;;
7150;SDS011;3617;48.836;9.172;2023-03-31T12:06:29;2.00;;;0.70;;
7150;SDS011;3617;48.836;9.172;2023-03-31T12:09:04;0.77;;;0.70;;
7150;SDS011;3617;48.836;9.172;2023-03-31T12:14:25;0.87;;;0.63;;
7150;SDS011;3617;48.836;9.172;2023-03-31T12:16:53;2.00;;;0.60;;
7150;SDS011;3617;48.836;9.172;2023-03-31T12:19:21;1.80;;;0.60;;
7150;SDS011;3617;48.836;9.172;2023-03-31T12:21:53;1.13;;;0.60;;
7150;SDS011;3617;48.836;9.172;2023-03-31T12:24:20;1.90;;;0.90;;
7150;SDS011;3617;48.836;9.172;2023-03-31T12:26:59;0.60;;;0.60;;
7150;SDS011;3617;48.836;9.172;2023-03-31T12:29:35;1.47;;;0.70;;
7150;SDS011;3617;48.836;9.172;2023-03-31T12:32:04;2.33;;;0.70;;
7150;SDS011;3617;48.836;9.172;2023-03-31T12:34:32;0.97;;;0.60;;
7150;SDS011;3617;48.836;9.172;2023-03-31T12:37:17;2.47;;;0.60;;
7150;SDS011;3617;48.836;9.172;2023-03-31T12:39:52;3.10;;;0.80;;
7150;SDS011;3617;48.836;9.172;2023-03-31T12:44:55;2.13;;;0.77;;
7150;SDS011;3617;48.836;9.172;2023-03-31T12:50:27;1.53;;;0.70;;
7150;SDS011;3617;48.836;9.172;2023-03-31T12:52:58;2.33;;;0.90;;
7150;SDS011;3617;48.836;9.172;2023-03-31T13:01:03;1.27;;;0.80;;
7150;SDS011;3617;48.836;9.172;2023-03-31T13:05:58;3.00;;;0.80;;
7150;SDS011;3617;48.836;9.172;2023-03-31T13:11:10;5.03;;;1.37;;
7150;SDS011;3617;48.836;9.172;2023-03-31T13:13:39;2.07;;;1.03;;
7150;SDS011;3617;48.836;9.172;2023-03-31T13:16:05;4.20;;;1.10;;
7150;SDS011;3617;48.836;9.172;2023-03-31T13:18:32;4.00;;;1.23;;
7150;SDS011;3617;48.836;9.172;2023-03-31T13:20:59;3.50;;;1.27;;
7150;SDS011;3617;48.836;9.172;2023-03-31T13:23:26;2.33;;;0.80;;
7150;SDS011;3617;48.836;9.172;2023-03-31T13:25:54;2.73;;;0.87;;
7150;SDS011;3617;48.836;9.172;2023-03-31T13:33:13;2.83;;;1.00;;
7150;SDS011;3617;48.836;9.172;2023-03-31T13:35:40;0.60;;;0.60;;
7150;SDS011;3617;48.836;9.172;2023-03-31T13:38:12;3.10;;;0.80;;
7150;SDS011;3617;48.836;9.172;2023-03-31T13:40:48;1.00;;;0.70;;
7150;SDS011;3617;48.836;9.172;2023-03-31T13:46:22;0.70;;;0.70;;
7150;SDS011;3617;48.836;9.172;2023-03-31T13:51:40;1.13;;;0.73;;
7150;SDS011;3617;48.836;9.172;2023-03-31T13:54:18;0.70;;;0.70;;
7150;SDS011;3617;48.836;9.172;2023-03-31T14:01:43;0.50;;;0.50;;
7150;SDS011;3617;48.836;9.172;2023-03-31T14:06:43;0.47;;;0.47;;
7150;SDS011;3617;48.836;9.172;2023-03-31T14:09:20;0.50;;;0.50;;
7150;SDS011;3617;48.836;9.172;2023-03-31T14:11:48;1.70;;;0.80;;
7150;SDS011;3617;48.836;9.172;2023-03-31T14:14:15;1.10;;;0.90;;
7150;SDS011;3617;48.836;9.172;2023-03-31T14:16:48;0.53;;;0.53;;
7150;SDS011;3617;48.836;9.172;2023-03-31T14:21:42;0.70;;;0.60;;
7150;SDS011;3617;48.836;9.172;2023-03-31T14:24:19;1.13;;;0.73;;
7150;SDS011;3617;48.836;9.172;2023-03-31T14:26:58;1.47;;;0.60;;
7150;SDS011;3617;48.836;9.172;2023-03-31T14:37:17;0.70;;;0.70;;
7150;SDS011;3617;48.836;9.172;2023-03-31T14:39:51;0.70;;;0.60;;
7150;SDS011;3617;48.836;9.172;2023-03-31T14:42:21;0.70;;;0.70;;
7150;SDS011;3617;48.836;9.172;2023-03-31T14:44:53;0.60;;;0.60;;
7150;SDS011;3617;48.836;9.172;2023-03-31T14:47:20;2.37;;;0.70;;
7150;SDS011;3617;48.836;9.172;2023-03-31T14:49:47;1.80;;;0.70;;
7150;SDS011;3617;48.836;9.172;2023-03-31T14:52:23;0.80;;;0.57;;
7150;SDS011;3617;48.836;9.172;2023-03-31T14:54:51;1.57;;;0.70;;
7150;SDS011;3617;48.836;9.172;2023-03-31T14:57:18;0.60;;;0.60;;
7150;SDS011;3617;48.836;9.172;2023-03-31T14:59:45;1.00;;;0.60;;
7150;SDS011;3617;48.836;9.172;2023-03-31T15:02:16;2.40;;;0.80;;
7150;SDS011;3617;48.836;9.172;2023-03-31T15:04:45;1.27;;;0.60;;
7150;SDS011;3617;48.836;9.172;2023-03-31T15:07:12;1.50;;;0.67;;
7150;SDS011;3617;48.836;9.172;2023-03-31T15:09:40;2.00;;;0.77;;
7150;SDS011;3617;48.836;9.172;2023-03-31T15:12:10;1.67;;;0.70;;
7150;SDS011;3617;48.836;9.172;2023-03-31T15:14:44;0.73;;;0.60;;
7150;SDS011;3617;48.836;9.172;2023-03-31T15:17:17;0.80;;;0.77;;
7150;SDS011;3617;48.836;9.172;2023-03-31T15:19:43;1.10;;;0.80;;
7150;SDS011;3617;48.836;9.172;2023-03-31T15:22:11;1.03;;;0.60;;
7150;SDS011;3617;48.836;9.172;2023-03-31T15:24:40;1.90;;;0.60;;
7150;SDS011;3617;48.836;9.172;2023-03-31T15:27:14;1.57;;;0.70;;
7150;SDS011;3617;48.836;9.172;2023-03-31T15:29:51;0.87;;;0.70;;
7150;SDS011;3617;48.836;9.172;2023-03-31T15:32:26;0.73;;;0.70;;
7150;SDS011;3617;48.836;9.172;2023-03-31T15:34:53;0.97;;;0.67;;
7150;SDS011;3617;48.836;9.172;2023-03-31T15:37:26;2.23;;;0.93;;
7150;SDS011;3617;48.836;9.172;2023-03-31T15:39:56;1.80;;;0.90;;
7150;SDS011;3617;48.836;9.172;2023-03-31T15:42:23;2.40;;;0.90;;
7150;SDS011;3617;48.836;9.172;2023-03-31T15:47:19;1.10;;;0.70;;
7150;SDS011;3617;48.836;9.172;2023-03-31T15:49:50;2.13;;;0.80;;
7150;SDS011;3617;48.836;9.172;2023-03-31T15:52:20;3.33;;;0.90;;
7150;SDS011;3617;48.836;9.172;2023-03-31T15:54:46;2.40;;;1.00;;
7150;SDS011;3617;48.836;9.172;2023-03-31T15:57:13;3.00;;;0.93;;
7150;SDS011;3617;48.836;9.172;2023-03-31T15:59:44;1.27;;;0.83;;
7150;SDS011;3617;48.836;9.172;2023-03-31T16:02:13;1.67;;;0.80;;
7150;SDS011;3617;48.836;9.172;2023-03-31T16:04:40;3.40;;;0.90;;
7150;SDS011;3617;48.836;9.172;2023-03-31T16:07:07;0.93;;;0.93;;
7150;SDS011;3617;48.836;9.172;2023-03-31T16:09:44;2.33;;;0.70;;
7150;SDS011;3617;48.836;9.172;2023-03-31T16:12:17;1.43;;;0.87;;
7150;SDS011;3617;48.836;9.172;2023-03-31T16:14:49;1.70;;;0.90;;
7150;SDS011;3617;48.836;9.172;2023-03-31T16:17:27;1.70;;;0.83;;
7150;SDS011;3617;48.836;9.172;2023-03-31T16:19:56;1.50;;;0.90;;
7150;SDS011;3617;48.836;9.172;2023-03-31T16:22:24;1.27;;;0.93;;
7150;SDS011;3617;48.836;9.172;2023-03-31T16:24:51;1.70;;;0.70;;
7150;SDS011;3617;48.836;9.172;2023-03-31T16:27:17;0.70;;;0.70;;
7150;SDS011;3617;48.836;9.172;2023-03-31T16:29:43;3.50;;;0.90;;
7150;SDS011;3617;48.836;9.172;2023-03-31T16:32:17;4.20;;;1.00;;
7150;SDS011;3617;48.836;9.172;2023-03-31T16:34:54;0.80;;;0.70;;
7150;SDS011;3617;48.836;9.172;2023-03-31T16:37:21;2.97;;;0.80;;
7150;SDS011;3617;48.836;9.172;2023-03-31T16:39:47;1.73;;;0.70;;
7150;SDS011;3617;48.836;9.172;2023-03-31T16:42:13;0.50;;;0.50;;
7150;SDS011;3617;48.836;9.172;2023-03-31T16:44:39;1.20;;;0.63;;
7150;SDS011;3617;48.836;9.172;2023-03-31T16:47:05;2.00;;;0.97;;
7150;SDS011;3617;48.836;9.172;2023-03-31T16:49:31;0.93;;;0.73;;
7150;SDS011;3617;48.836;9.172;2023-03-31T16:51:57;1.37;;;0.90;;
7150;SDS011;3617;48.836;9.172;2023-03-31T16:54:23;1.53;;;0.90;;
7150;SDS011;3617;48.836;9.172;2023-03-31T16:56:49;2.67;;;0.80;;
7150;SDS011;3617;48.836;9.172;2023-03-31T16:59:15;1.20;;;0.63;;
7150;SDS011;3617;48.836;9.172;2023-03-31T17:01:41;0.60;;;0.60;;
7150;SDS011;3617;48.836;9.172;2023-03-31T17:04:07;0.70;;;0.70;;
7150;SDS011;3617;48.836;9.172;2023-03-31T17:06:33;1.77;;;0.90;;
7150;SDS011;3617;48.836;9.172;2023-03-31T17:08:59;1.13;;;0.70;;
7150;SDS011;3617;48.836;9.172;2023-03-31T17:11:26;1.13;;;0.83;;
7150;SDS011;3617;48.836;9.172;2023-03-31T17:13:54;1.23;;;0.80;;
7150;SDS011;3617;48.836;9.172;2023-03-31T17:16:21;1.37;;;0.80;;
7150;SDS011;3617;48.836;9.172;2023-03-31T17:18:47;0.93;;;0.70;;
7150;SDS011;3617;48.836;9.172;2023-03-31T17:21:14;0.73;;;0.73;;
7150;SDS011;3617;48.836;9.172;2023-03-31T17:23:42;0.60;;;0.60;;
7150;SDS011;3617;48.836;9.172;2023-03-31T17:26:09;1.70;;;0.73;;